Time;durP1;ratioP1;P1;durP2;ratioP2;P2;SDS_P1;SDS_P2;PMS_P1;PMS_P2;Temp;Humidity;BMP_temperature;BMP_pressure;BME280_temperature;BME280_humidity;BME280_pressure;Samples;Min_cycle;Max_cycle;Signal;HPM_P1;HPM_P2
2023/12/03 00:03:56;;;;;;;4.40;3.00;;;;;;;16.51;49.41;96938.75;10391036;28;20565;-30
2023/12/03 00:08:58;;;;;;;4.63;3.70;;;;;;;16.58;48.25;96944.72;10395012;28;20403;-29
2023/12/03 00:13:58;;;;;;;5.03;3.65;;;;;;;16.64;48.02;96947.31;10394554;28;20034;-29
2023/12/03 00:18:59;;;;;;;5.73;3.10;;;;;;;16.62;47.10;96941.41;10397141;28;20025;-30
2023/12/03 00:23:59;;;;;;;4.50;3.50;;;;;;;16.65;48.10;96947.34;10398306;28;20038;-29
2023/12/03 00:28:59;;;;;;;5.43;3.60;;;;;;;16.64;47.82;96950.72;10399887;28;20030;-30
2023/12/03 00:34:05;;;;;;;5.63;4.60;;;;;;;16.58;47.49;96945.59;10407455;28;20876;-29
2023/12/03 00:39:06;;;;;;;6.30;3.70;;;;;;;16.59;47.32;96947.28;10406785;28;20025;-30
2023/12/03 00:44:06;;;;;;;6.10;3.63;;;;;;;16.63;47.20;96951.50;10397532;28;20037;-30
2023/12/03 00:49:07;;;;;;;5.70;3.20;;;;;;;16.63;48.48;96956.56;10393285;28;20601;-30
2023/12/03 00:54:07;;;;;;;4.53;3.10;;;;;;;16.57;49.00;96964.09;10394514;28;20029;-30
2023/12/03 00:59:07;;;;;;;6.63;3.43;;;;;;;16.49;49.33;96965.69;10388211;28;20522;-30
2023/12/03 01:04:08;;;;;;;5.53;3.30;;;;;;;16.50;49.57;96977.50;10385709;28;20290;-30
2023/12/03 01:09:08;;;;;;;6.30;3.93;;;;;;;16.52;49.49;96970.78;10391963;28;20334;-30
2023/12/03 01:14:08;;;;;;;4.80;4.07;;;;;;;16.51;49.73;96975.81;10395955;28;20487;-30
2023/12/03 01:19:09;;;;;;;6.00;3.15;;;;;;;16.46;49.68;96973.22;10384177;28;20396;-30
2023/12/03 01:24:09;;;;;;;7.13;3.83;;;;;;;16.54;49.39;96981.75;10389449;28;20091;-30
2023/12/03 01:29:11;;;;;;;4.70;3.30;;;;;;;16.52;49.61;96980.06;10399069;28;20033;-29
2023/12/03 01:34:12;;;;;;;7.88;4.25;;;;;;;16.55;49.06;96983.44;10396853;28;20116;-30
2023/12/03 01:39:12;;;;;;;5.07;3.88;;;;;;;16.52;49.53;96987.63;10403351;28;20109;-30
2023/12/03 01:44:13;;;;;;;8.25;3.42;;;;;;;16.47;49.03;96992.63;10391779;28;20047;-29
2023/12/03 01:49:13;;;;;;;4.73;3.90;;;;;;;16.53;49.03;97007.84;10414327;28;20037;-30
2023/12/03 01:54:14;;;;;;;5.43;3.70;;;;;;;16.49;49.25;97011.19;10391558;28;20087;-30
2023/12/03 01:59:14;;;;;;;4.90;3.40;;;;;;;16.51;49.36;97019.63;10400025;28;20288;-29
2023/12/03 02:04:15;;;;;;;4.45;3.83;;;;;;;16.48;48.91;97011.16;10392131;28;20604;-31
2023/12/03 02:09:16;;;;;;;3.67;2.95;;;;;;;16.49;49.23;97008.66;10398358;28;20029;-30
2023/12/03 02:14:16;;;;;;;6.95;4.10;;;;;;;16.50;49.03;97012.03;10398770;28;20092;-30
2023/12/03 02:19:17;;;;;;;8.30;3.17;;;;;;;16.49;49.11;97018.78;10401480;28;20050;-29
2023/12/03 02:24:17;;;;;;;7.32;3.40;;;;;;;16.38;49.11;97012.72;10396671;28;20324;-29
2023/12/03 02:29:18;;;;;;;3.97;2.87;;;;;;;16.45;48.96;97014.50;10399582;28;20062;-29
2023/12/03 02:34:18;;;;;;;4.43;3.40;;;;;;;16.45;47.92;97014.50;10394124;28;20038;-30
2023/12/03 02:39:18;;;;;;;4.82;3.40;;;;;;;16.48;48.63;97018.75;10391006;28;20297;-29
2023/12/03 02:44:19;;;;;;;5.37;3.00;;;;;;;16.42;48.79;97024.56;10387690;28;20044;-30
2023/12/03 02:49:19;;;;;;;4.70;3.20;;;;;;;16.40;48.75;97015.25;10397421;28;20042;-29
2023/12/03 02:54:19;;;;;;;5.37;2.80;;;;;;;16.42;48.64;97022.03;10400953;28;20044;-31
2023/12/03 02:59:20;;;;;;;5.20;2.87;;;;;;;16.44;48.62;97017.03;10392454;28;20135;-31
2023/12/03 03:04:20;;;;;;;3.33;2.90;;;;;;;16.43;48.73;97023.75;10391516;28;20524;-29
2023/12/03 03:09:20;;;;;;;6.67;3.77;;;;;;;16.41;49.05;97020.34;10397177;28;20037;-29
2023/12/03 03:14:21;;;;;;;3.83;2.80;;;;;;;16.43;48.88;97022.88;10395752;28;20049;-29
2023/12/03 03:19:21;;;;;;;4.70;2.70;;;;;;;16.41;48.48;97012.78;10395464;28;20408;-29
2023/12/03 03:24:21;;;;;;;4.67;2.80;;;;;;;16.48;47.94;97024.66;10394615;28;20721;-30
2023/12/03 03:29:22;;;;;;;5.63;2.75;;;;;;;16.52;47.70;97026.38;10393586;28;20033;-29
2023/12/03 03:34:22;;;;;;;5.97;3.00;;;;;;;16.56;48.00;97028.13;10392158;28;20552;-29
2023/12/03 03:39:23;;;;;;;3.37;3.00;;;;;;;16.55;47.69;97033.16;10387761;28;20083;-30
2023/12/03 03:44:23;;;;;;;3.50;2.87;;;;;;;16.54;47.50;97037.34;10393851;28;20046;-30
2023/12/03 03:49:23;;;;;;;4.20;2.40;;;;;;;16.54;47.98;97042.41;10389978;28;20049;-29
2023/12/03 03:54:24;;;;;;;4.07;2.60;;;;;;;16.55;47.00;97046.63;10391454;28;20042;-29
2023/12/03 03:59:25;;;;;;;4.03;2.00;;;;;;;16.54;47.63;97050.00;10386702;28;20067;-32
2023/12/03 04:04:26;;;;;;;5.80;2.55;;;;;;;16.54;47.39;97049.16;10388046;28;20523;-30
2023/12/03 04:09:27;;;;;;;5.17;2.20;;;;;;;16.51;47.60;97049.97;10383165;28;20039;-29
2023/12/03 04:14:27;;;;;;;4.13;2.42;;;;;;;16.55;47.27;97061.78;10386697;28;20042;-29
2023/12/03 04:19:28;;;;;;;2.27;2.07;;;;;;;16.52;47.30;97081.97;10384693;28;20030;-31
2023/12/03 04:24:28;;;;;;;4.72;2.38;;;;;;;16.41;47.89;97068.38;10388340;28;20042;-30
2023/12/03 04:29:28;;;;;;;2.63;2.00;;;;;;;16.33;48.24;97072.44;10398834;28;20037;-29
2023/12/03 04:34:29;;;;;;;2.70;2.30;;;;;;;16.41;47.55;97083.53;10392298;28;20041;-30
2023/12/03 04:39:29;;;;;;;3.60;2.63;;;;;;;16.37;48.30;97096.09;10391150;28;20133;-30
2023/12/03 04:44:33;;;;;;;2.97;2.65;;;;;;;16.31;48.29;97076.63;10395943;28;20429;-30
2023/12/03 04:49:33;;;;;;;4.00;2.58;;;;;;;16.35;48.10;97093.50;10398201;28;20464;-30
2023/12/03 04:54:33;;;;;;;2.97;2.67;;;;;;;16.43;47.47;97099.53;10389223;28;20040;-29
2023/12/03 04:59:34;;;;;;;4.20;2.20;;;;;;;16.46;47.26;97107.16;10390068;28;20034;-30
2023/12/03 05:04:34;;;;;;;2.25;2.00;;;;;;;16.51;47.16;97100.50;10395839;28;20048;-30
2023/12/03 05:09:38;;;;;;;2.17;1.97;;;;;;;16.51;46.72;97105.56;10395021;28;20044;-30
2023/12/03 05:14:39;;;;;;;2.60;2.05;;;;;;;16.48;47.07;97110.59;10392059;28;20065;-30
2023/12/03 05:19:41;;;;;;;2.97;2.08;;;;;;;16.47;46.84;97103.84;10399658;28;20048;-30
2023/12/03 05:24:42;;;;;;;2.72;2.08;;;;;;;16.46;46.92;97107.16;10398085;28;20041;-29
2023/12/03 05:29:43;;;;;;;2.37;1.97;;;;;;;16.48;46.99;97109.72;10387779;28;20037;-29
2023/12/03 05:34:44;;;;;;;3.40;2.30;;;;;;;16.48;46.87;97113.09;10390807;28;20036;-29
2023/12/03 05:39:44;;;;;;;3.28;2.47;;;;;;;16.47;46.69;97108.88;10392182;28;20120;-30
2023/12/03 05:44:45;;;;;;;3.93;2.60;;;;;;;16.46;47.08;97122.31;10387858;28;20104;-30
2023/12/03 05:49:45;;;;;;;5.10;2.97;;;;;;;16.37;47.40;97117.13;10387244;28;20029;-29
2023/12/03 05:54:45;;;;;;;1.80;1.70;;;;;;;16.37;47.41;97124.72;10386849;28;20120;-30
2023/12/03 05:59:46;;;;;;;2.87;1.90;;;;;;;16.37;47.26;97142.41;10392694;28;20043;-31
2023/12/03 06:04:47;;;;;;;1.75;1.65;;;;;;;16.36;47.53;97134.78;10387558;28;20072;-30
2023/12/03 06:09:47;;;;;;;3.17;2.22;;;;;;;16.33;47.63;97144.84;10392461;28;20091;-29
2023/12/03 06:14:47;;;;;;;13.13;3.10;;;;;;;16.32;47.90;97153.25;10383965;28;20117;-29
2023/12/03 06:19:49;;;;;;;3.40;2.22;;;;;;;16.29;47.95;97143.94;10392772;28;20056;-31
2023/12/03 06:24:49;;;;;;;2.73;2.20;;;;;;;16.31;47.75;97149.88;10388770;28;20040;-30
2023/12/03 06:29:50;;;;;;;3.70;2.33;;;;;;;16.39;47.23;97150.03;10385206;28;20496;-30
2023/12/03 06:34:50;;;;;;;2.93;2.23;;;;;;;16.46;45.99;97156.88;10387789;28;20114;-29
2023/12/03 06:39:51;;;;;;;3.35;1.95;;;;;;;16.45;46.26;97156.00;10388768;28;20559;-30
2023/12/03 06:44:51;;;;;;;2.50;1.90;;;;;;;16.48;45.66;97156.06;10384328;28;20038;-29
2023/12/03 06:49:51;;;;;;;2.60;1.80;;;;;;;16.48;45.65;97166.19;10387758;28;20108;-30
2023/12/03 06:54:52;;;;;;;3.63;2.43;;;;;;;16.48;45.45;97170.38;10388440;28;20040;-29
2023/12/03 06:59:52;;;;;;;2.50;2.30;;;;;;;16.46;45.98;97182.97;10416953;28;20304;-30
2023/12/03 07:04:53;;;;;;;2.30;2.10;;;;;;;16.50;45.31;97184.75;10400293;28;20031;-30
2023/12/03 07:09:53;;;;;;;3.10;2.25;;;;;;;16.53;44.99;97187.31;10396089;28;20025;-29
2023/12/03 07:14:53;;;;;;;2.63;2.43;;;;;;;16.51;44.67;97173.78;10380780;28;20038;-30
2023/12/03 07:19:54;;;;;;;3.50;2.43;;;;;;;16.55;42.55;97170.47;10382827;28;20030;-32
2023/12/03 07:24:54;;;;;;;2.93;2.63;;;;;;;16.54;43.37;97168.78;10384801;28;20285;-29
2023/12/03 07:29:56;;;;;;;5.30;3.00;;;;;;;16.62;42.28;97166.38;10379916;28;20129;-30
2023/12/03 07:34:56;;;;;;;7.20;2.88;;;;;;;16.55;43.73;97180.59;10384569;28;20034;-31
2023/12/03 07:39:56;;;;;;;6.43;2.63;;;;;;;16.65;44.42;97174.84;10387184;28;20481;-31
2023/12/03 07:44:57;;;;;;;2.37;2.07;;;;;;;16.60;46.43;97186.56;10390597;28;20289;-31
2023/12/03 07:49:59;;;;;;;3.83;2.77;;;;;;;16.38;45.28;97184.53;10386024;28;20059;-29
2023/12/03 07:54:59;;;;;;;5.20;2.40;;;;;;;16.56;44.32;97196.59;10384223;28;20029;-30
2023/12/03 07:59:59;;;;;;;3.00;2.47;;;;;;;16.63;44.33;97176.50;10384294;28;20042;-29
2023/12/03 08:05:00;;;;;;;3.57;3.17;;;;;;;16.67;43.97;97179.91;10381826;28;20404;-32
2023/12/03 08:10:00;;;;;;;3.70;2.23;;;;;;;16.74;42.73;97165.69;10387329;28;20121;-31
2023/12/03 08:15:00;;;;;;;2.47;2.27;;;;;;;16.73;44.04;97158.94;10402379;28;20129;-30
2023/12/03 08:20:01;;;;;;;3.23;2.47;;;;;;;16.73;43.87;97152.19;10407080;28;20049;-30
2023/12/03 08:25:01;;;;;;;3.60;2.27;;;;;;;16.71;43.95;97159.75;10394235;28;20408;-31
2023/12/03 08:30:05;;;;;;;3.03;2.65;;;;;;;16.76;43.55;97173.31;10398057;28;20025;-30
2023/12/03 08:35:06;;;;;;;2.80;2.10;;;;;;;16.70;44.38;97187.56;10393859;28;20026;-30
2023/12/03 08:40:07;;;;;;;3.28;2.17;;;;;;;16.65;43.27;97192.56;10403760;28;20037;-30
2023/12/03 08:45:07;;;;;;;3.67;2.40;;;;;;;16.67;43.16;97188.38;10403284;28;20057;-29
2023/12/03 08:50:08;;;;;;;2.70;1.98;;;;;;;16.72;43.33;97212.03;10409947;28;20030;-30
2023/12/03 08:55:08;;;;;;;2.85;2.05;;;;;;;16.72;43.54;97201.06;10406068;28;20057;-31
2023/12/03 09:00:10;;;;;;;2.50;2.13;;;;;;;16.71;43.15;97192.63;10396751;28;20488;-31
2023/12/03 09:05:10;;;;;;;2.72;2.42;;;;;;;16.72;43.42;97208.66;10398485;28;20044;-30
2023/12/03 09:10:11;;;;;;;3.35;2.40;;;;;;;16.73;43.20;97216.28;10395820;28;20033;-31
2023/12/03 09:15:12;;;;;;;5.90;2.80;;;;;;;16.61;43.71;97211.00;10394258;28;20454;-29
2023/12/03 09:20:12;;;;;;;6.38;3.88;;;;;;;16.37;42.10;97218.22;10398415;28;20296;-30
2023/12/03 09:25:13;;;;;;;5.50;3.30;;;;;;;16.61;42.18;97217.75;10398981;28;20029;-30
2023/12/03 09:30:13;;;;;;;5.63;3.38;;;;;;;16.64;42.06;97210.22;10395975;28;20120;-29
2023/12/03 09:35:14;;;;;;;6.80;3.25;;;;;;;16.65;42.61;97214.44;10400457;28;20029;-30
2023/12/03 09:40:14;;;;;;;6.88;3.65;;;;;;;16.67;43.22;97222.88;10398142;28;20133;-30
2023/12/03 09:45:15;;;;;;;6.13;4.10;;;;;;;16.10;36.53;97216.91;10400702;28;20489;-30
2023/12/03 09:50:16;;;;;;;7.18;4.13;;;;;;;16.32;36.11;97214.75;10410777;28;20042;-30
2023/12/03 09:55:18;;;;;;;12.38;4.97;;;;;;;16.37;38.22;97213.16;10404336;28;20048;-29
2023/12/03 10:00:19;;;;;;;8.40;5.00;;;;;;;16.39;39.99;97214.06;10404796;28;20030;-29
2023/12/03 10:05:19;;;;;;;8.95;5.22;;;;;;;16.29;38.94;97209.63;10402990;28;20048;-30
2023/12/03 10:10:21;;;;;;;9.40;5.13;;;;;;;16.43;40.08;97205.69;10411763;28;20030;-31
2023/12/03 10:15:21;;;;;;;6.03;4.32;;;;;;;16.45;41.21;97198.97;10401072;28;20041;-29
2023/12/03 10:20:22;;;;;;;6.87;4.03;;;;;;;16.48;41.36;97191.44;10412476;28;20451;-30
2023/12/03 10:25:29;;;;;;;13.48;4.22;;;;;;;16.49;41.61;97183.03;10416703;28;20132;-31
2023/12/03 10:30:30;;;;;;;5.75;3.75;;;;;;;16.44;41.81;97174.53;10402487;28;20041;-29
2023/12/03 10:35:35;;;;;;;7.40;4.50;;;;;;;16.48;41.58;97170.38;10401341;28;20033;-29
2023/12/03 10:40:35;;;;;;;5.90;3.67;;;;;;;16.52;41.54;97167.06;10411541;28;20095;-29
2023/12/03 10:45:36;;;;;;;5.37;3.63;;;;;;;16.51;42.08;97170.41;10408098;28;20036;-30
2023/12/03 10:50:38;;;;;;;5.97;3.72;;;;;;;16.52;42.05;97155.28;10401510;28;20037;-30
2023/12/03 10:55:38;;;;;;;4.43;3.33;;;;;;;16.51;42.03;97146.00;10403763;28;20076;-30
2023/12/03 11:00:43;;;;;;;5.30;3.17;;;;;;;16.53;41.85;97138.44;10408374;28;20053;-30
2023/12/03 11:05:52;;;;;;;4.18;2.92;;;;;;;16.50;42.25;97128.28;10399787;28;20660;-30
2023/12/03 11:10:53;;;;;;;6.18;3.03;;;;;;;16.48;42.05;97123.22;10409457;28;20056;-30
2023/12/03 11:15:56;;;;;;;3.88;3.17;;;;;;;16.47;42.20;97123.19;10390630;28;20053;-30
2023/12/03 11:21:10;;;;;;;4.10;2.85;;;;;;;16.49;42.45;97135.03;10390569;28;20556;-30
2023/12/03 11:26:15;;;;;;;4.60;2.78;;;;;;;16.47;42.00;97131.63;10404483;28;20030;-29
2023/12/03 11:31:15;;;;;;;4.28;2.67;;;;;;;16.42;42.53;97115.53;10399555;28;20029;-32
2023/12/03 11:36:16;;;;;;;3.08;2.70;;;;;;;16.44;42.45;97113.88;10407092;28;20479;-37
2023/12/03 11:41:17;;;;;;;3.42;2.92;;;;;;;16.45;42.02;97100.41;10407717;28;20040;-29
2023/12/03 11:46:17;;;;;;;4.95;2.65;;;;;;;16.44;42.04;97100.41;10403851;28;20115;-29
2023/12/03 11:51:21;;;;;;;3.80;2.83;;;;;;;16.43;42.16;97084.38;10403706;28;20165;-29
2023/12/03 11:56:21;;;;;;;2.70;2.35;;;;;;;16.44;42.58;97085.25;10395904;28;20042;-30
2023/12/03 12:01:22;;;;;;;2.70;2.30;;;;;;;16.40;42.31;97066.66;10408651;28;20042;-29
2023/12/03 12:06:30;;;;;;;2.73;2.40;;;;;;;16.32;42.15;97053.03;10400023;28;20068;-30
2023/12/03 12:11:31;;;;;;;4.10;2.53;;;;;;;16.35;42.18;97042.97;10401708;28;20488;-30
2023/12/03 12:16:32;;;;;;;2.78;2.22;;;;;;;16.41;42.38;97053.19;10399219;28;20137;-30
2023/12/03 12:21:33;;;;;;;3.03;2.33;;;;;;;16.39;43.03;97044.75;10397817;28;20038;-29
2023/12/03 12:26:33;;;;;;;2.70;2.25;;;;;;;16.38;42.48;97058.19;10402957;28;20034;-29
2023/12/03 12:31:34;;;;;;;3.28;2.63;;;;;;;16.37;42.32;97056.50;10405313;28;20049;-29
2023/12/03 12:36:34;;;;;;;3.03;2.60;;;;;;;16.46;42.45;97064.19;10402542;28;20041;-30
2023/12/03 12:41:38;;;;;;;2.60;2.40;;;;;;;16.52;42.17;97071.88;10392896;28;20038;-30
2023/12/03 12:46:59;;;;;;;4.00;2.67;;;;;;;16.57;42.14;97064.34;10400719;28;20041;-30
2023/12/03 12:52:13;;;;;;;3.45;2.47;;;;;;;16.61;42.10;97071.16;10399310;28;20029;-31
2023/12/03 12:57:14;;;;;;;8.38;2.80;;;;;;;16.45;41.55;97071.78;10394096;28;20056;-29
2023/12/03 13:02:19;;;;;;;5.82;3.30;;;;;;;16.38;43.65;97068.28;10401015;28;20033;-30
2023/12/03 13:07:20;;;;;;;5.82;3.83;;;;;;;16.46;44.08;97074.31;10397549;28;20057;-30
2023/12/03 13:12:20;;;;;;;9.02;3.33;;;;;;;16.57;43.54;97065.22;10395311;28;20532;-30
2023/12/03 13:17:21;;;;;;;5.73;2.90;;;;;;;16.65;41.74;97071.22;10396147;28;20041;-30
2023/12/03 13:22:21;;;;;;;4.38;3.10;;;;;;;16.73;43.03;97078.03;10401969;28;20037;-30
2023/12/03 13:27:24;;;;;;;4.57;3.07;;;;;;;16.74;42.68;97068.78;10406431;28;20073;-30
2023/12/03 13:32:24;;;;;;;5.60;2.90;;;;;;;16.73;44.66;97064.56;10417988;28;20125;-30
2023/12/03 13:37:25;;;;;;;3.90;2.83;;;;;;;16.72;44.49;97054.44;10399285;28;20172;-29
2023/12/03 13:42:25;;;;;;;3.35;2.85;;;;;;;16.81;42.01;97061.28;10400942;28;20068;-29
2023/12/03 13:47:25;;;;;;;5.47;3.13;;;;;;;16.86;42.06;97053.75;10404970;28;20042;-29
2023/12/03 13:52:26;;;;;;;5.03;3.03;;;;;;;16.87;42.18;97043.66;10396956;28;20041;-29
2023/12/03 13:57:27;;;;;;;4.18;2.80;;;;;;;16.86;43.56;97039.44;10406966;28;20032;-29
2023/12/03 14:02:27;;;;;;;4.07;3.33;;;;;;;16.83;44.25;97038.56;10426406;28;20103;-29
2023/12/03 14:07:27;;;;;;;4.83;2.80;;;;;;;16.86;43.11;97033.53;10425034;28;20029;-29
2023/12/03 14:12:28;;;;;;;7.17;4.07;;;;;;;16.85;43.30;97030.16;10422470;28;20128;-30
2023/12/03 14:17:28;;;;;;;4.50;2.93;;;;;;;16.91;42.30;97031.91;10394869;28;20120;-30
2023/12/03 14:22:29;;;;;;;4.07;2.83;;;;;;;16.77;42.40;97008.16;10397859;28;20519;-29
2023/12/03 14:27:29;;;;;;;5.37;2.40;;;;;;;16.87;42.06;97022.56;10392479;28;20413;-29
2023/12/03 14:32:29;;;;;;;3.77;2.63;;;;;;;16.81;41.48;97025.88;10396852;28;20044;-30
2023/12/03 14:37:30;;;;;;;5.13;3.57;;;;;;;16.80;41.62;97024.19;10391435;28;20113;-30
2023/12/03 14:42:30;;;;;;;3.55;2.30;;;;;;;16.80;42.62;97019.13;10392466;28;20095;-30
2023/12/03 14:47:31;;;;;;;5.67;3.50;;;;;;;16.66;44.50;96994.53;10388944;28;20113;-30
2023/12/03 14:52:31;;;;;;;6.37;3.27;;;;;;;16.83;42.84;97020.88;10396191;28;20659;-30
2023/12/03 14:57:31;;;;;;;5.30;2.43;;;;;;;16.80;44.34;97015.75;10394050;28;20058;-30
2023/12/03 15:02:32;;;;;;;3.53;2.53;;;;;;;16.78;45.08;97025.00;10392576;28;20042;-29
2023/12/03 15:07:33;;;;;;;2.97;2.20;;;;;;;16.77;41.65;97024.19;10392937;28;20087;-30
2023/12/03 15:12:34;;;;;;;2.85;1.98;;;;;;;16.76;42.33;97016.56;10393870;28;20968;-30
2023/12/03 15:17:34;;;;;;;3.10;2.30;;;;;;;16.84;42.72;97028.44;10390959;28;20124;-29
2023/12/03 15:22:34;;;;;;;2.47;2.27;;;;;;;16.86;42.73;97046.16;10401217;28;20049;-29
2023/12/03 15:27:35;;;;;;;3.23;2.27;;;;;;;16.88;43.88;97041.97;10383689;28;20980;-30
2023/12/03 15:32:35;;;;;;;4.20;2.53;;;;;;;16.86;43.47;97043.63;10391021;28;20289;-30
2023/12/03 15:37:36;;;;;;;7.65;3.42;;;;;;;16.75;41.47;97055.31;10386993;28;20998;-33
2023/12/03 15:42:36;;;;;;;4.17;2.43;;;;;;;16.77;43.78;97063.75;10389684;28;20050;-32
2023/12/03 15:47:36;;;;;;;2.70;2.40;;;;;;;16.78;43.81;97055.34;10390080;28;20132;-29
2023/12/03 15:52:37;;;;;;;4.37;2.20;;;;;;;16.71;43.94;97043.47;10388635;28;20034;-32
2023/12/03 15:57:37;;;;;;;4.10;2.33;;;;;;;16.79;43.95;97039.34;10388060;28;20534;-31
2023/12/03 16:02:38;;;;;;;4.07;2.70;;;;;;;16.73;42.63;97037.59;10392992;28;20408;-30
2023/12/03 16:07:42;;;;;;;7.53;2.35;;;;;;;16.82;44.03;97026.75;10387823;28;20664;-30
2023/12/03 16:12:43;;;;;;;4.00;2.40;;;;;;;16.82;44.42;97011.59;10392954;28;20037;-30
2023/12/03 16:17:45;;;;;;;4.82;2.10;;;;;;;16.83;44.10;97008.22;10391560;28;20034;-29
2023/12/03 16:22:48;;;;;;;5.72;2.97;;;;;;;16.86;44.29;97011.63;10389103;28;20797;-30
2023/12/03 16:27:48;;;;;;;3.63;2.90;;;;;;;16.80;44.91;96988.81;10383703;28;20503;-30
2023/12/03 16:32:49;;;;;;;5.47;2.40;;;;;;;16.73;43.45;96971.88;10393783;28;20032;-30
2023/12/03 16:37:50;;;;;;;5.18;2.63;;;;;;;16.79;45.39;96992.16;10389122;28;20452;-29
2023/12/03 16:42:50;;;;;;;3.90;2.25;;;;;;;16.80;44.76;96995.53;10387249;28;20033;-30
2023/12/03 16:47:51;;;;;;;3.40;2.50;;;;;;;16.90;43.88;96990.59;10388646;28;20500;-30
2023/12/03 16:52:53;;;;;;;4.82;2.35;;;;;;;16.90;43.46;97000.69;10391329;28;20094;-30
2023/12/03 16:57:53;;;;;;;4.72;2.83;;;;;;;16.74;45.23;96975.25;10403350;28;20052;-30
2023/12/03 17:02:53;;;;;;;3.13;2.53;;;;;;;16.85;45.40;96996.44;10404114;28;20423;-30
2023/12/03 17:07:54;;;;;;;5.63;2.40;;;;;;;16.83;45.06;96982.94;10395496;28;20022;-30
2023/12/03 17:12:54;;;;;;;4.23;2.63;;;;;;;16.82;44.92;96987.13;10402886;28;20044;-30
2023/12/03 17:17:54;;;;;;;4.43;3.33;;;;;;;16.83;44.49;96973.66;10409338;28;20046;-29
2023/12/03 17:23:00;;;;;;;3.55;2.25;;;;;;;16.85;44.43;96981.25;10410139;28;20808;-30
2023/12/03 17:28:01;;;;;;;4.55;2.72;;;;;;;16.86;44.40;96982.94;10403318;28;20053;-30
2023/12/03 17:33:01;;;;;;;4.28;2.90;;;;;;;16.88;44.32;96981.28;10401263;28;20044;-31
2023/12/03 17:38:02;;;;;;;2.42;2.22;;;;;;;16.93;42.91;96993.16;10392181;28;20048;-30
2023/12/03 17:43:03;;;;;;;5.68;2.95;;;;;;;16.94;43.39;96992.34;10399093;28;20050;-33
2023/12/03 17:48:03;;;;;;;4.22;2.95;;;;;;;16.98;43.00;96978.88;10391783;28;20037;-31
2023/12/03 17:53:04;;;;;;;7.23;3.20;;;;;;;17.00;43.67;96974.66;10401338;28;20736;-29
2023/12/03 17:58:04;;;;;;;4.37;2.90;;;;;;;17.01;43.45;96978.06;10395863;28;20296;-30
2023/12/03 18:03:09;;;;;;;8.63;2.70;;;;;;;16.99;43.12;96954.44;10398548;28;20095;-29
2023/12/03 18:08:10;;;;;;;7.93;3.10;;;;;;;17.06;45.62;96967.16;10403957;28;20709;-30
2023/12/03 18:13:10;;;;;;;6.05;3.40;;;;;;;17.07;43.30;96973.91;10399055;28;20037;-30
2023/12/03 18:18:14;;;;;;;4.25;2.67;;;;;;;17.07;43.78;96962.94;10408590;28;20033;-29
2023/12/03 18:23:15;;;;;;;7.70;2.88;;;;;;;17.14;45.30;96962.19;10400645;28;20053;-30
2023/12/03 18:28:15;;;;;;;7.87;2.80;;;;;;;17.23;44.36;96962.25;10394662;28;20033;-30
2023/12/03 18:33:17;;;;;;;11.97;2.90;;;;;;;17.22;42.99;96968.13;10397531;28;20025;-30
2023/12/03 18:38:18;;;;;;;4.82;3.13;;;;;;;17.15;41.73;96967.22;10403778;28;20033;-31
2023/12/03 18:43:19;;;;;;;5.45;3.20;;;;;;;17.05;40.55;96944.34;10383327;28;20037;-29
2023/12/03 18:48:20;;;;;;;3.20;2.72;;;;;;;17.12;41.58;96946.09;10408670;28;20500;-29
2023/12/03 18:53:20;;;;;;;5.87;3.07;;;;;;;17.10;41.71;96942.72;10401104;28;20045;-30
2023/12/03 18:58:21;;;;;;;4.17;3.10;;;;;;;17.08;41.53;96939.34;10405871;28;20493;-30
2023/12/03 19:03:21;;;;;;;3.53;2.50;;;;;;;17.06;40.68;96925.84;10417918;28;20519;-29
2023/12/03 19:08:24;;;;;;;4.10;3.33;;;;;;;17.00;41.12;96920.72;10386301;28;20026;-29
2023/12/03 19:13:25;;;;;;;5.15;2.33;;;;;;;16.99;40.85;96904.69;10405502;28;20450;-40
2023/12/03 19:18:27;;;;;;;2.92;2.08;;;;;;;17.02;39.65;96889.56;10405387;28;20083;-29
2023/12/03 19:23:27;;;;;;;2.90;2.22;;;;;;;16.95;41.02;96895.38;10385937;28;20109;-29
2023/12/03 19:28:28;;;;;;;3.70;2.10;;;;;;;17.01;41.56;96887.88;10376251;28;20088;-31
2023/12/03 19:33:28;;;;;;;3.17;2.40;;;;;;;17.01;41.83;96877.75;10383415;28;20041;-29
2023/12/03 19:38:29;;;;;;;17.30;2.87;;;;;;;17.01;41.64;96866.78;10391501;28;20034;-30
2023/12/03 19:43:29;;;;;;;5.77;2.17;;;;;;;17.00;41.70;96849.91;10378385;28;20030;-30
2023/12/03 19:48:30;;;;;;;3.10;2.35;;;;;;;17.00;41.49;96849.91;10398503;28;20373;-30
2023/12/03 19:53:30;;;;;;;3.37;1.97;;;;;;;17.02;41.87;96843.16;10391617;28;20037;-30
2023/12/03 19:58:30;;;;;;;2.28;1.83;;;;;;;17.02;42.16;96838.13;10373169;28;20403;-29
2023/12/03 20:03:31;;;;;;;2.17;1.97;;;;;;;17.01;41.90;96839.81;10374930;28;20046;-30
2023/12/03 20:08:31;;;;;;;2.30;1.90;;;;;;;16.99;42.29;96833.03;10377296;28;20168;-29
2023/12/03 20:13:33;;;;;;;3.27;1.83;;;;;;;16.99;41.14;96838.94;10383397;28;20048;-30
2023/12/03 20:18:33;;;;;;;2.70;1.67;;;;;;;16.99;40.95;96833.03;10376547;28;20037;-31
2023/12/03 20:23:34;;;;;;;2.13;1.70;;;;;;;16.94;40.59;96817.84;10371239;28;20037;-31
2023/12/03 20:28:35;;;;;;;2.70;2.20;;;;;;;16.94;40.96;96814.44;10375316;28;20326;-31
2023/12/03 20:33:35;;;;;;;1.83;1.52;;;;;;;16.96;41.02;96817.81;10385752;28;20034;-31
2023/12/03 20:38:36;;;;;;;1.57;1.40;;;;;;;16.89;40.63;96796.72;10374866;28;20037;-30
2023/12/03 20:43:36;;;;;;;1.52;1.30;;;;;;;16.93;40.61;96802.63;10383685;28;20037;-29
2023/12/03 20:48:36;;;;;;;1.60;1.40;;;;;;;17.02;40.95;96805.22;10402769;28;20033;-29
2023/12/03 20:53:38;;;;;;;1.97;1.50;;;;;;;17.01;41.20;96786.69;10398710;28;20609;-29
2023/12/03 20:58:38;;;;;;;2.25;1.33;;;;;;;17.03;40.93;96779.09;10392550;28;20079;-30
2023/12/03 21:03:38;;;;;;;1.63;1.33;;;;;;;17.08;40.50;96764.81;10402467;28;20037;-29
2023/12/03 21:08:39;;;;;;;5.37;2.87;;;;;;;17.06;40.52;96761.44;10394315;28;20291;-30
2023/12/03 21:13:39;;;;;;;2.70;1.97;;;;;;;17.05;40.31;96757.19;10400433;28;20280;-30
2023/12/03 21:18:39;;;;;;;1.93;1.70;;;;;;;16.92;40.51;96760.50;10400666;28;20029;-30
2023/12/03 21:23:40;;;;;;;3.67;1.83;;;;;;;16.99;40.86;96757.16;10410168;28;20044;-30
2023/12/03 21:28:40;;;;;;;2.93;2.03;;;;;;;17.02;39.36;96742.00;10390344;28;20030;-30
2023/12/03 21:33:41;;;;;;;3.50;2.47;;;;;;;16.94;41.46;96714.16;10405852;28;20026;-30
2023/12/03 21:38:41;;;;;;;2.13;1.70;;;;;;;17.00;41.31;96733.56;10394948;28;20482;-30
2023/12/03 21:43:41;;;;;;;2.53;2.03;;;;;;;16.99;41.49;96731.88;10406506;28;20048;-29
2023/12/03 21:48:42;;;;;;;2.27;1.67;;;;;;;16.96;41.16;96721.72;10409613;28;20055;-30
2023/12/03 21:53:42;;;;;;;2.60;1.80;;;;;;;16.96;41.36;96721.72;10393616;28;20086;-31
2023/12/03 21:58:42;;;;;;;1.40;1.23;;;;;;;16.94;40.91;96708.22;10397289;28;20115;-29
2023/12/03 22:03:43;;;;;;;1.90;1.53;;;;;;;16.90;41.02;96697.25;10403883;28;20060;-30
2023/12/03 22:08:44;;;;;;;2.93;1.30;;;;;;;16.82;40.97;96680.38;10401668;28;20040;-30
2023/12/03 22:13:44;;;;;;;1.85;1.50;;;;;;;16.86;40.75;96679.53;10395946;28;20037;-30
2023/12/03 22:18:45;;;;;;;1.73;1.30;;;;;;;16.87;40.04;96676.16;10407116;28;20033;-32
2023/12/03 22:23:45;;;;;;;1.80;1.23;;;;;;;16.84;39.57;96679.50;10405725;28;20060;-30
2023/12/03 22:28:45;;;;;;;1.90;1.40;;;;;;;16.85;39.61;96663.53;10394226;28;20034;-30
2023/12/03 22:33:46;;;;;;;2.23;1.43;;;;;;;16.87;39.35;96655.94;10415901;28;20109;-30
2023/12/03 22:38:46;;;;;;;3.58;1.45;;;;;;;16.86;39.09;96659.31;10404462;28;20566;-29
2023/12/03 22:43:46;;;;;;;4.40;1.40;;;;;;;16.88;38.71;96647.50;10409778;28;20033;-31
2023/12/03 22:48:47;;;;;;;1.33;1.13;;;;;;;16.85;38.77;96647.50;10399744;28;20104;-29
2023/12/03 22:53:48;;;;;;;1.45;1.35;;;;;;;16.86;38.70;96634.00;10412736;28;20112;-30
2023/12/03 22:58:48;;;;;;;1.92;1.27;;;;;;;16.82;39.01;96634.84;10404421;28;20463;-29
2023/12/03 23:03:49;;;;;;;1.08;0.98;;;;;;;16.84;38.54;96626.41;10407743;28;20040;-29
2023/12/03 23:08:49;;;;;;;1.37;1.10;;;;;;;16.85;38.97;96605.38;10400296;28;20129;-29
2023/12/03 23:13:49;;;;;;;1.17;0.90;;;;;;;16.81;38.58;96601.13;10400846;28;20482;-30
2023/12/03 23:18:50;;;;;;;1.93;1.20;;;;;;;16.80;38.35;96591.84;10398720;28;20033;-29